createdAt,value
2023-04-25T00:00:15.683Z,9.747121
2023-04-25T00:01:15.642Z,9.747169
2023-04-25T00:02:15.710Z,9.747097
2023-04-25T00:03:15.735Z,9.747262
2023-04-25T00:04:15.886Z,9.747285
2023-04-25T00:05:15.703Z,9.747412
2023-04-25T00:06:15.619Z,9.747395
2023-04-25T00:07:15.591Z,9.747392
2023-04-25T00:08:15.586Z,9.747498
2023-04-25T00:09:15.589Z,9.747412
2023-04-25T00:10:15.606Z,9.747079
2023-04-25T00:11:15.576Z,9.747085
2023-04-25T00:12:15.551Z,9.747291
2023-04-25T00:13:15.546Z,9.747532
2023-04-25T00:14:15.541Z,9.747440
2023-04-25T00:15:15.565Z,9.747665
2023-04-25T00:16:15.576Z,9.747547
2023-04-25T00:17:15.518Z,9.747390
2023-04-25T00:18:15.555Z,9.747471
2023-04-25T00:19:15.512Z,9.747495
2023-04-25T00:20:15.532Z,9.747396
2023-04-25T00:21:15.495Z,9.747523
2023-04-25T00:22:15.478Z,9.747658
2023-04-25T00:23:15.475Z,9.747695
2023-04-25T00:24:15.458Z,9.747622
2023-04-25T00:25:15.479Z,9.747532
2023-04-25T00:26:15.474Z,9.747504
2023-04-25T00:27:15.436Z,9.747476
2023-04-25T00:28:15.429Z,9.747392
2023-04-25T00:29:15.427Z,9.747536
2023-04-25T00:30:15.437Z,9.747404
2023-04-25T00:31:15.416Z,9.747548
2023-04-25T00:32:15.393Z,9.747342
2023-04-25T00:33:15.407Z,9.747265
2023-04-25T00:34:15.373Z,9.747366
2023-04-25T00:35:15.399Z,9.747420
2023-04-25T00:36:15.377Z,9.747487
2023-04-25T00:37:15.370Z,9.747358
2023-04-25T00:38:15.344Z,9.747397
2023-04-25T00:39:15.349Z,9.747324
2023-04-25T00:40:15.374Z,9.747358
2023-04-25T00:41:15.330Z,9.747516
2023-04-25T00:42:15.312Z,9.747470
2023-04-25T00:43:15.332Z,9.747443
2023-04-25T00:44:15.308Z,9.747407
2023-04-25T00:45:15.329Z,9.747368
2023-04-25T00:46:15.330Z,9.747424
2023-04-25T00:47:15.301Z,9.747274
2023-04-25T00:48:15.287Z,9.747001
2023-04-25T00:49:15.266Z,9.747293
2023-04-25T00:50:15.278Z,9.747457
2023-04-25T00:51:15.256Z,9.747549
2023-04-25T00:52:15.251Z,9.747508
2023-04-25T00:53:15.233Z,9.747481
2023-04-25T00:54:15.230Z,9.747507
2023-04-25T00:55:15.263Z,9.747539
2023-04-25T00:56:16.210Z,9.747492
2023-04-25T00:57:15.192Z,9.747503
2023-04-25T00:58:15.188Z,9.747531
2023-04-25T00:59:15.176Z,9.747499
2023-04-25T01:00:15.208Z,9.747483
2023-04-25T01:01:15.279Z,9.747402
2023-04-25T01:02:15.187Z,9.747428
2023-04-25T01:03:15.208Z,9.747513
2023-04-25T01:04:15.388Z,9.747417
2023-04-25T01:05:15.137Z,9.747477
2023-04-25T01:06:15.165Z,9.747395
2023-04-25T01:07:15.155Z,9.747396
2023-04-25T01:08:15.122Z,9.747312
2023-04-25T01:09:15.130Z,9.747299
2023-04-25T01:10:15.096Z,9.747334
2023-04-25T01:11:15.140Z,9.747277
2023-04-25T01:12:15.134Z,9.747321
2023-04-25T01:13:15.077Z,9.747319
2023-04-25T01:14:15.068Z,9.747309
2023-04-25T01:15:15.101Z,9.747338
2023-04-25T01:16:15.068Z,9.747410
2023-04-25T01:17:15.052Z,9.747393
2023-04-25T01:18:15.039Z,9.747395
2023-04-25T01:19:15.041Z,9.747339
2023-04-25T01:20:15.056Z,9.747376
2023-04-25T01:21:15.051Z,9.747274
2023-04-25T01:22:15.010Z,9.747296
2023-04-25T01:23:14.999Z,9.747475
2023-04-25T01:24:15.008Z,9.747384
2023-04-25T01:25:15.028Z,9.747602
2023-04-25T01:26:14.969Z,9.747589
2023-04-25T01:27:14.994Z,9.747578
2023-04-25T01:28:14.971Z,9.747466
2023-04-25T01:29:14.962Z,9.747560
2023-04-25T01:30:14.955Z,9.747421
2023-04-25T01:31:14.955Z,9.747409
2023-04-25T01:32:14.979Z,9.747369
2023-04-25T01:33:14.934Z,9.747409
2023-04-25T01:34:14.943Z,9.747488
2023-04-25T01:35:14.914Z,9.747456
2023-04-25T01:36:14.932Z,9.747381
2023-04-25T01:37:14.916Z,9.747359
2023-04-25T01:38:14.883Z,9.747515
2023-04-25T01:39:14.868Z,9.747499
2023-04-25T01:40:14.878Z,9.747413
2023-04-25T01:41:14.884Z,9.747419
2023-04-25T01:42:14.851Z,9.747547
2023-04-25T01:43:14.858Z,9.747566
2023-04-25T01:44:14.841Z,9.747714
2023-04-25T01:45:14.836Z,9.747690
2023-04-25T01:46:14.932Z,9.747490
2023-04-25T01:47:15.810Z,9.747409
2023-04-25T01:48:14.815Z,9.747465
2023-04-25T01:49:14.819Z,9.747339
2023-04-25T01:50:14.790Z,9.747230
2023-04-25T01:51:14.823Z,9.747370
2023-04-25T01:52:14.772Z,9.747485
2023-04-25T01:53:14.769Z,9.747379
2023-04-25T01:54:14.763Z,9.747258
2023-04-25T01:55:14.772Z,9.747269
2023-04-25T01:56:14.782Z,9.747292
2023-04-25T01:57:14.746Z,9.747391
2023-04-25T01:58:14.728Z,9.747430
2023-04-25T01:59:14.732Z,9.747396
2023-04-25T02:00:14.733Z,9.747422
2023-04-25T02:01:14.756Z,9.747315
2023-04-25T02:02:14.805Z,9.747271
2023-04-25T02:03:14.835Z,9.747236
2023-04-25T02:04:14.820Z,9.747287
2023-04-25T02:05:14.681Z,9.747309
2023-04-25T02:06:14.684Z,9.747448
2023-04-25T02:07:14.653Z,9.747427
2023-04-25T02:08:14.650Z,9.747380
2023-04-25T02:09:14.640Z,9.747461
2023-04-25T02:10:14.633Z,9.747394
2023-04-25T02:11:14.689Z,9.747249
2023-04-25T02:12:14.619Z,9.747343
2023-04-25T02:13:14.626Z,9.747322
2023-04-25T02:14:14.601Z,9.747458
2023-04-25T02:15:14.598Z,9.747190
2023-04-25T02:16:14.695Z,9.747382
2023-04-25T02:17:14.656Z,9.747484
2023-04-25T02:18:14.624Z,9.747542
2023-04-25T02:19:14.574Z,9.747555
2023-04-25T02:20:14.566Z,9.747405
2023-04-25T02:21:14.617Z,9.747257
2023-04-25T02:22:14.550Z,9.747288
2023-04-25T02:23:14.550Z,9.747310
2023-04-25T02:24:14.536Z,9.747292
2023-04-25T02:25:14.537Z,9.747301
2023-04-25T02:26:14.576Z,9.747271
2023-04-25T02:27:14.509Z,9.747216
2023-04-25T02:28:14.505Z,9.747257
2023-04-25T02:29:14.495Z,9.747243
2023-04-25T02:30:14.490Z,9.747215
2023-04-25T02:31:14.539Z,9.747366
2023-04-25T02:32:14.467Z,9.747373
2023-04-25T02:33:14.459Z,9.747543
2023-04-25T02:34:14.452Z,9.747475
2023-04-25T02:35:14.447Z,9.747470
2023-04-25T02:36:14.473Z,9.747486
2023-04-25T02:37:14.433Z,9.747390
2023-04-25T02:38:14.419Z,9.747330
2023-04-25T02:39:14.442Z,9.747458
2023-04-25T02:40:14.414Z,9.747196
2023-04-25T02:41:14.433Z,9.747370
2023-04-25T02:42:14.396Z,9.747463
2023-04-25T02:43:14.386Z,9.747453
2023-04-25T02:44:14.378Z,9.747396
2023-04-25T02:45:14.371Z,9.747497
2023-04-25T02:46:14.423Z,9.747422
2023-04-25T02:47:14.380Z,9.747325
2023-04-25T02:48:14.382Z,9.747396
2023-04-25T02:49:14.343Z,9.747470
2023-04-25T02:50:14.341Z,9.747495
2023-04-25T02:51:14.350Z,9.747468
2023-04-25T02:52:14.317Z,9.747388
2023-04-25T02:53:14.305Z,9.747443
2023-04-25T02:54:14.305Z,9.747466
2023-04-25T02:55:14.309Z,9.747428
2023-04-25T02:56:14.338Z,9.747351
2023-04-25T02:57:14.273Z,9.747348
2023-04-25T02:58:14.266Z,9.747272
2023-04-25T02:59:14.276Z,9.747298
2023-04-25T03:00:14.258Z,9.747123
2023-04-25T03:01:14.283Z,9.747223
2023-04-25T03:02:14.265Z,9.747217
2023-04-25T03:03:14.355Z,9.747379
2023-04-25T03:04:14.245Z,9.747527
2023-04-25T03:05:14.216Z,9.747355
2023-04-25T03:06:14.233Z,9.747388
2023-04-25T03:07:14.222Z,9.747338
2023-04-25T03:08:14.215Z,9.747354
2023-04-25T03:09:14.195Z,9.747254
2023-04-25T03:10:14.184Z,9.747391
2023-04-25T03:11:14.203Z,9.747450
2023-04-25T03:12:14.155Z,9.747466
2023-04-25T03:13:14.156Z,9.747398
2023-04-25T03:14:14.149Z,9.747253
2023-04-25T03:15:14.140Z,9.747327
2023-04-25T03:16:14.190Z,9.747328
2023-04-25T03:17:14.122Z,9.747225
2023-04-25T03:18:14.127Z,9.747277
2023-04-25T03:19:14.112Z,9.747273
2023-04-25T03:20:14.112Z,9.747206
2023-04-25T03:21:14.118Z,9.747343
2023-04-25T03:22:14.083Z,9.747364
2023-04-25T03:23:14.086Z,9.747448
2023-04-25T03:24:14.077Z,9.747266
2023-04-25T03:25:14.068Z,9.747303
2023-04-25T03:26:14.082Z,9.747322
2023-04-25T03:27:14.044Z,9.747233
2023-04-25T03:28:14.036Z,9.747489
2023-04-25T03:29:14.028Z,9.747411
2023-04-25T03:30:14.044Z,9.747419
2023-04-25T03:31:14.036Z,9.747351
2023-04-25T03:32:14.117Z,9.747310
2023-04-25T03:33:14.004Z,9.747272
2023-04-25T03:34:13.988Z,9.747437
2023-04-25T03:35:14.015Z,9.747297
2023-04-25T03:36:14.022Z,9.747311
2023-04-25T03:37:13.965Z,9.747342
2023-04-25T03:38:13.955Z,9.747249
2023-04-25T03:39:13.957Z,9.747161
2023-04-25T03:40:13.948Z,9.747245
2023-04-25T03:41:14.006Z,9.747414
2023-04-25T03:42:13.972Z,9.747361
2023-04-25T03:43:13.913Z,9.747502
2023-04-25T03:44:13.911Z,9.747484
2023-04-25T03:45:13.934Z,9.747545
2023-04-25T03:46:13.946Z,9.747460
2023-04-25T03:47:13.912Z,9.747498
2023-04-25T03:48:13.885Z,9.747660
2023-04-25T03:49:13.877Z,9.747643
2023-04-25T03:50:13.860Z,9.747731
2023-04-25T03:51:13.887Z,9.747511
2023-04-25T03:52:13.894Z,9.747590
2023-04-25T03:53:13.834Z,9.747591
2023-04-25T03:54:13.824Z,9.747785
2023-04-25T03:55:14.825Z,9.747657
2023-04-25T03:56:13.817Z,9.747739
2023-04-25T03:57:13.838Z,9.747700
2023-04-25T03:58:13.808Z,9.747644
2023-04-25T03:59:13.805Z,9.747600
2023-04-25T04:00:13.791Z,9.747557
2023-04-25T04:01:13.795Z,9.747727
2023-04-25T04:02:13.865Z,9.747751
2023-04-25T04:03:13.920Z,9.747630
2023-04-25T04:04:14.198Z,9.747684
2023-04-25T04:05:14.016Z,9.747706
2023-04-25T04:06:13.740Z,9.747593
2023-04-25T04:07:13.771Z,9.747562
2023-04-25T04:08:13.726Z,9.747663
2023-04-25T04:09:13.719Z,9.747709
2023-04-25T04:10:13.754Z,9.747696
2023-04-25T04:11:13.705Z,9.747656
2023-04-25T04:12:13.738Z,9.747734
2023-04-25T04:13:13.785Z,9.747723
2023-04-25T04:14:13.686Z,9.747747
2023-04-25T04:15:13.681Z,9.747670
2023-04-25T04:16:13.730Z,9.747570
2023-04-25T04:17:13.690Z,9.747541
2023-04-25T04:18:13.661Z,9.747455
2023-04-25T04:19:13.650Z,9.747531
2023-04-25T04:20:13.647Z,9.747564
2023-04-25T04:21:13.631Z,9.747588
2023-04-25T04:22:13.655Z,9.747654
2023-04-25T04:23:13.631Z,9.747878
2023-04-25T04:24:13.610Z,9.747638
2023-04-25T04:25:13.613Z,9.747621
2023-04-25T04:26:13.618Z,9.747675
2023-04-25T04:27:13.587Z,9.747412
2023-04-25T04:28:13.580Z,9.747712
2023-04-25T04:29:13.580Z,9.747789
2023-04-25T04:30:13.566Z,9.747665
2023-04-25T04:31:13.616Z,9.747639
2023-04-25T04:32:13.547Z,9.747713
2023-04-25T04:33:13.572Z,9.747569
2023-04-25T04:34:13.526Z,9.747519
2023-04-25T04:35:13.526Z,9.747582
2023-04-25T04:36:13.571Z,9.747617
2023-04-25T04:37:13.513Z,9.747554
2023-04-25T04:38:13.521Z,9.747537
2023-04-25T04:39:13.499Z,9.747535
2023-04-25T04:40:13.499Z,9.747515
2023-04-25T04:41:13.480Z,9.747541
2023-04-25T04:42:13.515Z,9.747554
2023-04-25T04:43:13.469Z,9.747551
2023-04-25T04:44:13.504Z,9.747583
2023-04-25T04:45:13.456Z,9.747586
2023-04-25T04:46:13.457Z,9.747596
2023-04-25T04:47:13.467Z,9.747531
2023-04-25T04:48:13.505Z,9.747586
2023-04-25T04:49:13.439Z,9.747664
2023-04-25T04:50:13.428Z,9.747556
2023-04-25T04:51:13.409Z,9.747602
2023-04-25T04:52:13.434Z,9.747540
2023-04-25T04:53:13.403Z,9.747588
2023-04-25T04:54:13.397Z,9.747531
2023-04-25T04:55:13.386Z,9.747551
2023-04-25T04:56:13.377Z,9.747596
2023-04-25T04:57:13.390Z,9.747557
2023-04-25T04:58:13.358Z,9.747598
2023-04-25T04:59:13.348Z,9.747576
2023-04-25T05:00:13.340Z,9.747496
2023-04-25T05:01:14.379Z,9.747559
2023-04-25T05:02:13.468Z,9.747466
2023-04-25T05:03:13.451Z,9.747384
2023-04-25T05:04:13.416Z,9.747362
2023-04-25T05:05:13.294Z,9.747402
2023-04-25T05:06:13.303Z,9.747426
2023-04-25T05:07:13.318Z,9.747407
2023-04-25T05:08:13.276Z,9.747439
2023-04-25T05:09:13.272Z,9.747418
2023-04-25T05:10:13.274Z,9.747332
2023-04-25T05:11:13.254Z,9.747473
2023-04-25T05:12:13.267Z,9.747421
2023-04-25T05:13:13.230Z,9.747453
2023-04-25T05:14:13.225Z,9.747452
2023-04-25T05:15:13.218Z,9.747390
2023-04-25T05:16:13.228Z,9.747369
2023-04-25T05:17:13.226Z,9.747452
2023-04-25T05:18:13.337Z,9.747495
2023-04-25T05:19:13.194Z,9.747484
2023-04-25T05:20:13.184Z,9.747386
2023-04-25T05:21:13.183Z,9.747502
2023-04-25T05:22:13.197Z,9.747499
2023-04-25T05:23:13.165Z,9.747471
2023-04-25T05:24:45.809Z,9.747559
2023-04-25T05:25:13.144Z,9.747576
2023-04-25T05:26:13.135Z,9.747545
2023-04-25T05:27:13.158Z,9.747564
2023-04-25T05:28:13.148Z,9.747449
2023-04-25T05:29:13.114Z,9.747461
2023-04-25T05:30:13.102Z,9.747375
2023-04-25T05:31:13.108Z,9.747350
2023-04-25T05:32:13.188Z,9.747374
2023-04-25T05:33:13.154Z,9.747275
2023-04-25T05:34:13.093Z,9.747409
2023-04-25T05:35:14.100Z,9.747462
2023-04-25T05:36:13.087Z,9.747293
2023-04-25T05:37:13.082Z,9.747429
2023-04-25T05:38:13.068Z,9.747494
2023-04-25T05:39:13.133Z,9.747422
2023-04-25T05:40:13.038Z,9.747539
2023-04-25T05:41:13.555Z,9.747395
2023-04-25T05:42:13.046Z,9.747329
2023-04-25T05:43:13.014Z,9.747488
2023-04-25T05:44:13.008Z,9.747481
2023-04-25T05:45:13.003Z,9.747437
2023-04-25T05:46:13.079Z,9.747540
2023-04-25T05:47:13.001Z,9.747390
2023-04-25T05:48:13.028Z,9.747362
2023-04-25T05:49:12.961Z,9.747320
2023-04-25T05:50:12.960Z,9.747564
2023-04-25T05:51:12.952Z,9.747447
2023-04-25T05:52:12.977Z,9.747551
2023-04-25T05:53:12.949Z,9.747542
2023-04-25T05:54:12.933Z,9.747453
2023-04-25T05:55:12.925Z,9.747285
2023-04-25T05:56:12.982Z,9.747293
2023-04-25T05:57:12.924Z,9.747316
2023-04-25T05:58:12.893Z,9.747315
2023-04-25T05:59:12.883Z,9.747408
2023-04-25T06:00:12.908Z,9.747412
2023-04-25T06:01:12.907Z,9.747400
2023-04-25T06:02:12.943Z,9.747321
2023-04-25T06:03:13.008Z,9.747356
2023-04-25T06:04:13.260Z,9.747392
2023-04-25T06:05:13.053Z,9.747324
2023-04-25T06:06:12.834Z,9.747282
2023-04-25T06:07:12.853Z,9.747361
2023-04-25T06:08:12.828Z,9.747401
2023-04-25T06:09:14.395Z,9.747397
2023-04-25T06:10:13.808Z,9.747221
2023-04-25T06:11:12.800Z,9.747252
2023-04-25T06:12:12.808Z,9.747280
2023-04-25T06:13:12.780Z,9.747422
2023-04-25T06:14:12.776Z,9.747499
2023-04-25T06:15:24.280Z,9.747603
2023-04-25T06:16:14.798Z,9.747429
2023-04-25T06:17:12.784Z,9.747409
2023-04-25T06:18:12.756Z,9.747422
2023-04-25T06:19:12.731Z,9.747527
2023-04-25T06:20:12.732Z,9.747601
2023-04-25T06:21:12.726Z,9.747505
2023-04-25T06:22:12.795Z,9.747282
2023-04-25T06:23:12.741Z,9.747383
2023-04-25T06:24:12.699Z,9.747427
2023-04-25T06:25:12.738Z,9.747620
2023-04-25T06:26:12.675Z,9.747479
2023-04-25T06:27:13.165Z,9.747310
2023-04-25T06:28:12.690Z,9.747285
2023-04-25T06:29:12.651Z,9.747403
2023-04-25T06:30:12.660Z,9.747444
2023-04-25T06:31:12.681Z,9.747489
2023-04-25T06:32:12.654Z,9.747413
2023-04-25T06:33:12.662Z,9.747396
2023-04-25T06:34:12.623Z,9.747297
2023-04-25T06:35:12.611Z,9.747438
2023-04-25T06:36:12.590Z,9.747472
2023-04-25T06:37:13.664Z,9.747405
2023-04-25T06:38:12.594Z,9.747376
2023-04-25T06:39:12.591Z,9.747344
2023-04-25T06:40:12.576Z,9.747504
2023-04-25T06:41:12.582Z,9.747443
2023-04-25T06:42:12.587Z,9.747425
2023-04-25T06:43:12.560Z,9.747312
2023-04-25T06:44:12.547Z,9.747352
2023-04-25T06:45:13.543Z,9.747293
2023-04-25T06:46:12.591Z,9.747361
2023-04-25T06:47:12.555Z,9.747432
2023-04-25T06:48:12.521Z,9.747346
2023-04-25T06:49:12.508Z,9.747371
2023-04-25T06:50:12.702Z,9.747427
2023-04-25T06:51:12.512Z,9.747446
2023-04-25T06:52:12.512Z,9.747369
2023-04-25T06:53:12.501Z,9.747376
2023-04-25T06:54:12.478Z,9.747405
2023-04-25T06:55:12.489Z,9.747430
2023-04-25T06:56:12.462Z,9.747378
2023-04-25T06:57:12.488Z,9.747300
2023-04-25T06:58:12.441Z,9.747416
2023-04-25T06:59:12.435Z,9.747448
2023-04-25T07:00:12.423Z,9.747440
2023-04-25T07:01:12.430Z,9.747315
2023-04-25T07:02:12.482Z,9.747392
2023-04-25T07:03:12.490Z,9.747335
2023-04-25T07:04:12.630Z,9.747404
2023-04-25T07:05:12.401Z,9.747351
2023-04-25T07:06:12.381Z,9.747436
2023-04-25T07:07:12.398Z,9.747369
2023-04-25T07:08:12.361Z,9.747364
2023-04-25T07:09:12.358Z,9.747433
2023-04-25T07:10:12.350Z,9.747497
2023-04-25T07:11:12.349Z,9.747315
2023-04-25T07:12:12.355Z,9.747367
2023-04-25T07:13:12.329Z,9.747421
2023-04-25T07:14:12.325Z,9.747467
2023-04-25T07:15:12.308Z,9.747251
2023-04-25T07:16:12.379Z,9.747276
2023-04-25T07:17:12.330Z,9.747412
2023-04-25T07:18:12.349Z,9.747405
2023-04-25T07:19:12.292Z,9.747456
2023-04-25T07:20:12.287Z,9.747337
2023-04-25T07:21:12.275Z,9.747405
2023-04-25T07:22:12.340Z,9.747399
2023-04-25T07:23:12.317Z,9.747401
2023-04-25T07:24:12.271Z,9.747355
2023-04-25T07:25:12.226Z,9.747319
2023-04-25T07:26:12.225Z,9.747481
2023-04-25T07:27:12.245Z,9.747437
2023-04-25T07:28:12.219Z,9.747261
2023-04-25T07:29:12.204Z,9.747381
2023-04-25T07:30:12.193Z,9.747467
2023-04-25T07:31:12.189Z,9.747447
2023-04-25T07:32:12.277Z,9.747337
2023-04-25T07:33:12.293Z,9.747390
2023-04-25T07:34:12.233Z,9.747373
2023-04-25T07:35:12.167Z,9.747379
2023-04-25T07:36:12.160Z,9.747409
2023-04-25T07:37:12.178Z,9.747416
2023-04-25T07:38:12.137Z,9.747528
2023-04-25T07:39:12.131Z,9.747528
2023-04-25T07:40:12.136Z,9.747384
2023-04-25T07:41:12.124Z,9.747420
2023-04-25T07:42:12.122Z,9.747482
2023-04-25T07:43:12.095Z,9.747486
2023-04-25T07:44:12.094Z,9.747460
2023-04-25T07:45:12.083Z,9.747592
2023-04-25T07:46:12.100Z,9.747620
2023-04-25T07:47:12.090Z,9.747640
2023-04-25T07:48:12.073Z,9.747752
2023-04-25T07:49:12.057Z,9.747602
2023-04-25T07:50:12.046Z,9.747690
2023-04-25T07:51:12.041Z,9.747727
2023-04-25T07:52:12.052Z,9.747635
2023-04-25T07:53:12.013Z,9.747736
2023-04-25T07:54:12.050Z,9.747508
2023-04-25T07:55:12.005Z,9.747499
2023-04-25T07:56:12.001Z,9.747484
2023-04-25T07:57:12.032Z,9.747541
2023-04-25T07:58:12.096Z,9.747478
2023-04-25T07:59:11.966Z,9.747525
2023-04-25T08:00:11.961Z,9.747528
2023-04-25T08:01:11.949Z,9.747431
2023-04-25T08:02:13.031Z,9.747536
2023-04-25T08:03:12.177Z,9.747585
2023-04-25T08:04:12.064Z,9.747370
2023-04-25T08:05:12.036Z,9.747433
2023-04-25T08:06:12.389Z,9.747476
2023-04-25T08:07:11.944Z,9.747519
2023-04-25T08:08:11.904Z,9.747537
2023-04-25T08:09:11.900Z,9.747484
2023-04-25T08:10:11.915Z,9.747470
2023-04-25T08:11:11.890Z,9.747582
2023-04-25T08:12:11.909Z,9.747456
2023-04-25T08:13:11.876Z,9.747434
2023-04-25T08:14:11.857Z,9.747528
2023-04-25T08:15:11.859Z,9.747468
2023-04-25T08:16:11.860Z,9.747523
2023-04-25T08:17:11.938Z,9.747723
2023-04-25T08:18:11.870Z,9.747646
2023-04-25T08:19:11.866Z,9.747561
2023-04-25T08:20:11.834Z,9.747490
2023-04-25T08:21:11.812Z,9.747513
2023-04-25T08:22:11.816Z,9.747440
2023-04-25T08:23:11.806Z,9.747501
2023-04-25T08:24:11.794Z,9.747428
2023-04-25T08:25:11.783Z,9.747479
2023-04-25T08:26:11.769Z,9.747439
2023-04-25T08:27:11.786Z,9.747365
2023-04-25T08:28:11.750Z,9.747508
2023-04-25T08:29:11.748Z,9.747577
2023-04-25T08:30:11.738Z,9.747518
2023-04-25T08:31:11.764Z,9.747450
2023-04-25T08:32:11.746Z,9.747494
2023-04-25T08:34:11.705Z,9.747322
2023-04-25T08:35:11.701Z,9.747437
2023-04-25T08:36:11.700Z,9.747406
2023-04-25T08:37:11.729Z,9.747337
2023-04-25T08:38:11.686Z,9.747383
2023-04-25T08:39:11.700Z,9.747427
2023-04-25T08:40:11.661Z,9.747459
2023-04-25T08:41:11.647Z,9.747592
2023-04-25T08:42:11.671Z,9.747618
2023-04-25T08:43:11.669Z,9.747457
2023-04-25T08:44:11.687Z,9.747500
2023-04-25T08:45:11.629Z,9.747561
2023-04-25T08:46:11.614Z,9.747583
2023-04-25T08:47:11.769Z,9.747576
2023-04-25T08:48:11.648Z,9.747551
2023-04-25T08:49:11.580Z,9.747539
2023-04-25T08:50:11.599Z,9.747435
2023-04-25T08:51:11.815Z,9.747424
2023-04-25T08:52:11.560Z,9.747480
2023-04-25T08:53:11.571Z,9.747544
2023-04-25T08:55:13.571Z,9.747554
2023-04-25T08:56:11.526Z,9.747520
2023-04-25T08:57:11.566Z,9.747569
2023-04-25T08:58:11.544Z,9.747482
2023-04-25T08:59:11.557Z,9.747527
2023-04-25T09:00:11.516Z,9.747645
2023-04-25T09:01:11.541Z,9.747543
2023-04-25T09:02:11.598Z,9.747695
2023-04-25T09:03:11.753Z,9.747506
2023-04-25T09:04:11.566Z,9.747476
2023-04-25T09:05:11.456Z,9.747512
2023-04-25T09:06:11.447Z,9.747623
2023-04-25T09:07:11.447Z,9.747558
2023-04-25T09:08:11.526Z,9.747427
2023-04-25T09:09:11.421Z,9.747431
2023-04-25T09:10:11.431Z,9.747455
2023-04-25T09:10:29.041Z,9.747502
2023-04-25T09:11:11.411Z,9.747537
2023-04-25T09:12:11.414Z,9.747500
2023-04-25T09:13:11.463Z,9.747522
2023-04-25T09:14:11.420Z,9.747462
2023-04-25T09:15:11.450Z,9.747419
2023-04-25T09:16:11.386Z,9.747413
2023-04-25T09:17:11.414Z,9.747329
2023-04-25T09:18:11.429Z,9.747403
2023-04-25T09:19:11.354Z,9.747526
2023-04-25T09:20:11.362Z,9.747659
2023-04-25T09:21:14.402Z,9.747631
2023-04-25T09:22:12.326Z,9.747465
2023-04-25T09:23:11.371Z,9.747530
2023-04-25T09:24:11.406Z,9.747394
2023-04-25T09:25:11.322Z,9.747429
2023-04-25T09:26:11.305Z,9.747532
2023-04-25T09:27:11.292Z,9.747472
2023-04-25T09:28:11.314Z,9.747451
2023-04-25T09:29:11.284Z,9.747424
2023-04-25T09:30:11.267Z,9.747434
2023-04-25T09:31:11.275Z,9.747445
2023-04-25T09:32:11.311Z,9.747460
2023-04-25T09:33:11.350Z,9.747506
2023-04-25T09:34:11.232Z,9.747480
2023-04-25T09:35:11.228Z,9.747363
2023-04-25T09:36:11.219Z,9.747450
2023-04-25T09:37:11.252Z,9.747538
2023-04-25T09:38:11.207Z,9.747445
2023-04-25T09:39:11.218Z,9.747432
2023-04-25T09:40:11.192Z,9.747638
2023-04-25T09:41:11.178Z,9.747541
2023-04-25T09:42:11.188Z,9.747458
2023-04-25T09:43:11.196Z,9.747422
2023-04-25T09:44:11.167Z,9.747519
2023-04-25T09:45:11.225Z,9.747464
2023-04-25T09:46:11.210Z,9.747428
2023-04-25T09:47:11.171Z,9.747393
2023-04-25T09:48:11.160Z,9.747398
2023-04-25T09:49:11.136Z,9.747415
2023-04-25T09:50:11.107Z,9.747438
2023-04-25T09:51:11.103Z,9.747437
2023-04-25T09:52:11.122Z,9.747481
2023-04-25T09:53:11.093Z,9.747435
2023-04-25T09:54:11.092Z,9.747494
2023-04-25T09:55:11.075Z,9.747495
2023-04-25T09:56:11.066Z,9.747407
2023-04-25T09:57:11.084Z,9.747410
2023-04-25T09:58:11.056Z,9.747339
2023-04-25T09:59:11.264Z,9.747500
2023-04-25T10:00:11.047Z,9.747411
2023-04-25T10:01:11.060Z,9.747356
2023-04-25T10:02:11.080Z,9.747402
2023-04-25T10:03:11.142Z,9.747445
2023-04-25T10:04:11.102Z,9.747447
2023-04-25T10:05:11.070Z,9.747464
2023-04-25T10:06:10.987Z,9.747484
2023-04-25T10:07:11.035Z,9.747409
2023-04-25T10:08:10.982Z,9.747384
2023-04-25T10:09:10.972Z,9.747374
2023-04-25T10:10:10.968Z,9.747456
2023-04-25T10:11:10.981Z,9.747448
2023-04-25T10:12:11.985Z,9.747428
2023-04-25T10:13:10.922Z,9.747338
2023-04-25T10:14:11.928Z,9.747425
2023-04-25T10:15:10.999Z,9.747432
2023-04-25T10:16:10.974Z,9.747412
2023-04-25T10:17:10.946Z,9.747434
2023-04-25T10:18:10.935Z,9.747387
2023-04-25T10:19:10.885Z,9.747377
2023-04-25T10:20:10.880Z,9.747393
2023-04-25T10:21:10.899Z,9.747445
2023-04-25T10:22:10.890Z,9.747414
2023-04-25T10:23:10.864Z,9.747338
2023-04-25T10:24:10.854Z,9.747396
2023-04-25T10:25:10.845Z,9.747368
2023-04-25T10:26:10.830Z,9.747446
2023-04-25T10:27:10.854Z,9.747452
2023-04-25T10:28:10.821Z,9.747488
2023-04-25T10:29:10.810Z,9.747425
2023-04-25T10:30:10.807Z,9.747445
2023-04-25T10:31:10.857Z,9.747496
2023-04-25T10:32:10.836Z,9.747486
2023-04-25T10:33:10.777Z,9.747495
2023-04-25T10:34:10.774Z,9.747463
2023-04-25T10:35:10.766Z,9.747307
2023-04-25T10:36:10.754Z,9.747538
2023-04-25T10:37:10.785Z,9.747369
2023-04-25T10:38:10.952Z,9.747438
2023-04-25T10:39:10.749Z,9.747513
2023-04-25T10:40:10.726Z,9.747461
2023-04-25T10:41:10.728Z,9.747445
2023-04-25T10:42:10.747Z,9.747437
2023-04-25T10:43:10.709Z,9.747542
2023-04-25T10:44:10.710Z,9.747460
2023-04-25T10:45:10.690Z,9.747500
2023-04-25T10:46:10.723Z,9.747526
2023-04-25T10:47:10.754Z,9.747524
2023-04-25T10:48:10.733Z,9.747486
2023-04-25T10:49:10.678Z,9.747464
2023-04-25T10:50:10.650Z,9.747481
2023-04-25T10:51:11.662Z,9.747452
2023-04-25T10:52:10.671Z,9.747552
2023-04-25T10:53:10.636Z,9.747325
2023-04-25T10:54:10.688Z,9.747400
2023-04-25T10:55:10.695Z,9.747424
2023-04-25T10:56:11.878Z,9.747338
2023-04-25T10:57:10.600Z,9.747392
2023-04-25T10:58:10.631Z,9.747455
2023-04-25T10:59:10.582Z,9.747466
2023-04-25T11:00:10.598Z,9.747383
2023-04-25T11:01:10.580Z,9.747499
2023-04-25T11:02:10.787Z,9.747363
2023-04-25T11:03:10.632Z,9.747380
2023-04-25T11:04:10.755Z,9.747406
2023-04-25T11:05:10.551Z,9.747448
2023-04-25T11:06:10.537Z,9.747446
2023-04-25T11:07:10.526Z,9.747375
2023-04-25T11:08:11.359Z,9.747419
2023-04-25T11:09:10.519Z,9.747434
2023-04-25T11:10:10.525Z,9.747412
2023-04-25T11:11:10.530Z,9.747565
2023-04-25T11:12:10.525Z,9.747484
2023-04-25T11:13:10.510Z,9.747394
2023-04-25T11:14:10.486Z,9.747618
2023-04-25T11:15:10.484Z,9.747439
2023-04-25T11:16:13.188Z,9.747470
2023-04-25T11:17:11.524Z,9.747409
2023-04-25T11:18:10.540Z,9.747497
2023-04-25T11:19:10.449Z,9.747499
2023-04-25T11:20:10.434Z,9.747375
2023-04-25T11:21:10.417Z,9.747362
2023-04-25T11:22:10.418Z,9.747404
2023-04-25T11:23:10.449Z,9.747412
2023-04-25T11:24:10.399Z,9.747397
2023-04-25T11:25:42.887Z,9.747383
2023-04-25T11:26:10.400Z,9.747436
2023-04-25T11:27:10.391Z,9.747468
2023-04-25T11:28:10.387Z,9.747434
2023-04-25T11:29:10.359Z,9.747384
2023-04-25T11:30:10.360Z,9.747395
2023-04-25T11:31:10.343Z,9.747390
2023-04-25T11:32:10.367Z,9.747428
2023-04-25T11:33:10.413Z,9.747477
2023-04-25T11:34:10.307Z,9.747455
2023-04-25T11:35:10.311Z,9.747546
2023-04-25T11:36:10.308Z,9.747524
2023-04-25T11:37:10.293Z,9.747537
2023-04-25T11:38:10.319Z,9.747501
2023-04-25T11:39:10.283Z,9.747409
2023-04-25T11:40:10.272Z,9.747360
2023-04-25T11:41:10.284Z,9.747271
2023-04-25T11:42:10.648Z,9.747522
2023-04-25T11:43:10.271Z,9.747401
2023-04-25T11:44:10.246Z,9.747486
2023-04-25T11:45:10.228Z,9.747717